createdAt,value
2022-12-24T00:01:33.437Z,13.23
2022-12-24T00:03:59.764Z,12.73
2022-12-24T00:06:26.149Z,14.90
2022-12-24T00:08:52.720Z,15.20
2022-12-24T00:11:19.788Z,14.38
2022-12-24T00:13:46.848Z,13.40
2022-12-24T00:16:13.300Z,13.18
2022-12-24T00:18:45.495Z,25.40
2022-12-24T00:21:12.480Z,11.23
2022-12-24T00:23:39.922Z,12.73
2022-12-24T00:26:06.230Z,18.35
2022-12-24T00:28:32.575Z,21.67
2022-12-24T00:30:59.054Z,17.50
2022-12-24T00:33:25.418Z,8.85
2022-12-24T00:35:52.915Z,13.73
2022-12-24T00:38:19.361Z,15.52
2022-12-24T00:40:45.721Z,13.55
2022-12-24T00:43:12.100Z,6.95
2022-12-24T00:45:38.421Z,14.43
2022-12-24T00:48:04.895Z,15.15
2022-12-24T00:50:31.195Z,12.70
2022-12-24T00:52:57.532Z,14.02
2022-12-24T00:55:23.883Z,10.20
2022-12-24T00:57:50.164Z,28.80
2022-12-24T01:00:17.784Z,17.60
2022-12-24T01:02:44.463Z,14.93
2022-12-24T01:05:11.630Z,17.90
2022-12-24T01:07:40.735Z,13.50
2022-12-24T01:10:07.993Z,12.07
2022-12-24T01:12:34.733Z,16.15
2022-12-24T01:15:01.038Z,12.45
2022-12-24T01:17:27.336Z,22.15
2022-12-24T01:19:53.634Z,15.15
2022-12-24T01:22:19.983Z,14.43
2022-12-24T01:24:46.484Z,13.27
2022-12-24T01:27:12.807Z,19.42
2022-12-24T01:29:39.093Z,17.33
2022-12-24T01:32:05.431Z,13.20
2022-12-24T01:34:32.016Z,14.90
2022-12-24T01:36:58.346Z,16.17
2022-12-24T01:39:24.684Z,14.93
2022-12-24T01:42:09.513Z,12.52
2022-12-24T01:44:40.937Z,14.93
2022-12-24T01:47:21.816Z,12.98
2022-12-24T01:50:10.748Z,11.25
2022-12-24T01:52:37.586Z,18.95
2022-12-24T01:55:12.474Z,18.85
2022-12-24T01:57:48.078Z,24.33
2022-12-24T02:00:16.117Z,12.77
2022-12-24T02:02:46.275Z,11.02
2022-12-24T02:05:18.678Z,19.80
2022-12-24T02:07:46.438Z,25.48
2022-12-24T02:10:13.913Z,26.83
2022-12-24T02:12:42.073Z,14.32
2022-12-24T02:15:11.765Z,19.25
2022-12-24T02:18:21.279Z,26.88
2022-12-24T02:21:18.805Z,22.05
2022-12-24T02:24:07.632Z,23.20
2022-12-24T02:27:00.505Z,16.65
2022-12-24T02:29:51.276Z,22.50
2022-12-24T02:32:25.128Z,15.38
2022-12-24T02:34:58.592Z,17.73
2022-12-24T02:37:31.198Z,20.40
2022-12-24T02:40:03.833Z,10.98
2022-12-24T02:42:38.283Z,19.77
2022-12-24T02:45:13.368Z,22.80
2022-12-24T02:47:41.688Z,20.38
2022-12-24T02:50:10.235Z,16.90
2022-12-24T02:52:40.315Z,20.45
2022-12-24T02:55:16.422Z,13.40
2022-12-24T02:58:13.478Z,22.05
2022-12-24T03:01:16.173Z,21.58
2022-12-24T03:04:16.394Z,12.98
2022-12-24T03:06:48.529Z,16.55
2022-12-24T03:09:26.690Z,23.85
2022-12-24T03:12:05.403Z,19.85
2022-12-24T03:14:34.612Z,17.55
2022-12-24T03:17:03.337Z,20.65
2022-12-24T03:19:30.903Z,17.15
2022-12-24T03:22:00.055Z,21.15
2022-12-24T03:24:26.563Z,21.90
2022-12-24T03:26:52.954Z,18.48
2022-12-24T03:29:20.187Z,18.45
2022-12-24T03:31:52.156Z,15.43
2022-12-24T03:34:19.210Z,18.25
2022-12-24T03:36:47.310Z,17.23
2022-12-24T03:39:13.625Z,21.77
2022-12-24T03:41:40.026Z,18.08
2022-12-24T03:44:06.445Z,18.67
2022-12-24T03:46:32.860Z,13.27
2022-12-24T03:48:59.251Z,22.27
2022-12-24T03:51:25.915Z,24.15
2022-12-24T03:53:53.385Z,18.33
2022-12-24T03:56:20.538Z,24.05
2022-12-24T03:58:47.097Z,13.45
2022-12-24T04:01:13.470Z,23.33
2022-12-24T04:03:39.977Z,17.65
2022-12-24T04:06:10.064Z,14.75
2022-12-24T04:08:37.111Z,14.23
2022-12-24T04:11:10.289Z,17.65
2022-12-24T04:13:36.908Z,19.75
2022-12-24T04:16:09.646Z,16.67
2022-12-24T04:18:36.493Z,15.02
2022-12-24T04:21:02.976Z,20.33
2022-12-24T04:23:35.191Z,11.85
2022-12-24T04:26:02.834Z,16.58
2022-12-24T04:28:30.639Z,22.85
2022-12-24T04:31:01.399Z,11.88
2022-12-24T04:33:28.552Z,18.85
2022-12-24T04:35:57.226Z,18.13
2022-12-24T04:38:23.686Z,14.38
2022-12-24T04:40:59.187Z,11.40
2022-12-24T04:43:26.175Z,17.27
2022-12-24T04:45:52.566Z,15.07
2022-12-24T04:48:18.852Z,21.35
2022-12-24T04:50:45.176Z,16.33
2022-12-24T04:53:11.543Z,19.70
2022-12-24T04:55:38.199Z,19.95
2022-12-24T04:58:04.521Z,17.77
2022-12-24T05:00:30.826Z,15.05
2022-12-24T05:02:57.160Z,22.98
2022-12-24T05:05:23.499Z,27.02
2022-12-24T05:07:49.833Z,25.20
2022-12-24T05:10:16.180Z,16.70
2022-12-24T05:12:42.479Z,16.98
2022-12-24T05:15:09.024Z,18.25
2022-12-24T05:17:35.349Z,20.23
2022-12-24T05:20:01.746Z,23.08
2022-12-24T05:22:46.542Z,17.05
2022-12-24T05:25:31.504Z,29.05
2022-12-24T05:27:57.886Z,17.45
2022-12-24T05:30:24.188Z,15.85
2022-12-24T05:32:50.543Z,24.55
2022-12-24T05:35:16.936Z,16.08
2022-12-24T05:37:43.240Z,28.98
2022-12-24T05:40:09.964Z,18.75
2022-12-24T05:42:36.247Z,20.80
2022-12-24T05:45:02.680Z,20.52
2022-12-24T05:47:29.120Z,15.70
2022-12-24T05:49:55.433Z,21.35
2022-12-24T05:52:21.753Z,27.15
2022-12-24T05:54:48.049Z,17.70
2022-12-24T05:57:14.337Z,20.95
2022-12-24T05:59:40.637Z,23.33
2022-12-24T06:02:06.975Z,18.50
2022-12-24T06:04:33.397Z,14.10
2022-12-24T06:06:59.821Z,27.98
2022-12-24T06:09:26.152Z,25.02
2022-12-24T06:11:52.474Z,26.75
2022-12-24T06:14:18.796Z,25.23
2022-12-24T06:16:45.073Z,22.08
2022-12-24T06:19:11.414Z,21.42
2022-12-24T06:21:37.766Z,23.25
2022-12-24T06:24:04.356Z,20.30
2022-12-24T06:26:30.669Z,16.70
2022-12-24T06:28:56.984Z,20.48
2022-12-24T06:31:23.898Z,18.50
2022-12-24T06:33:50.990Z,17.33
2022-12-24T06:36:20.619Z,19.02
2022-12-24T06:38:48.206Z,27.83
2022-12-24T06:41:15.532Z,20.77
2022-12-24T06:43:50.166Z,20.23
2022-12-24T06:46:17.126Z,17.20
2022-12-24T06:48:45.303Z,14.68
2022-12-24T06:51:12.938Z,21.65
2022-12-24T06:53:39.307Z,17.95
2022-12-24T06:56:08.090Z,25.25
2022-12-24T06:58:35.020Z,22.85
2022-12-24T07:01:02.618Z,13.60
2022-12-24T07:03:29.627Z,23.40
2022-12-24T07:05:56.125Z,18.40
2022-12-24T07:08:22.441Z,19.45
2022-12-24T07:10:54.049Z,26.45
2022-12-24T07:13:20.906Z,18.70
2022-12-24T07:15:47.232Z,26.90
2022-12-24T07:18:13.570Z,21.85
2022-12-24T07:20:39.896Z,27.58
2022-12-24T07:23:06.201Z,19.35
2022-12-24T07:25:32.490Z,30.60
2022-12-24T07:27:58.805Z,22.85
2022-12-24T07:30:25.098Z,22.58
2022-12-24T07:32:51.605Z,20.08
2022-12-24T07:35:17.974Z,29.77
2022-12-24T07:37:44.313Z,25.55
2022-12-24T07:40:10.885Z,26.50
2022-12-24T07:42:37.219Z,25.08
2022-12-24T07:45:04.958Z,17.73
2022-12-24T07:47:31.237Z,27.20
2022-12-24T07:49:57.537Z,23.77
2022-12-24T07:52:23.909Z,24.58
2022-12-24T07:54:50.274Z,24.08
2022-12-24T07:57:16.685Z,14.93
2022-12-24T07:59:43.201Z,18.48
2022-12-24T08:02:17.842Z,20.85
2022-12-24T08:04:44.905Z,26.42
2022-12-24T08:07:11.290Z,23.45
2022-12-24T08:09:38.507Z,27.67
2022-12-24T08:12:05.194Z,24.08
2022-12-24T08:14:31.837Z,21.95
2022-12-24T08:16:58.494Z,28.48
2022-12-24T08:19:24.921Z,20.60
2022-12-24T08:21:51.205Z,31.63
2022-12-24T08:24:17.521Z,15.82
2022-12-24T08:26:43.935Z,29.42
2022-12-24T08:29:10.295Z,21.17
2022-12-24T08:31:36.931Z,28.42
2022-12-24T08:34:08.859Z,41.45
2022-12-24T08:36:35.566Z,38.47
2022-12-24T08:39:03.468Z,73.65
2022-12-24T08:41:30.935Z,69.90
2022-12-24T08:43:57.388Z,66.10
2022-12-24T08:46:23.837Z,49.33
2022-12-24T08:48:50.248Z,33.30
2022-12-24T08:51:16.776Z,31.30
2022-12-24T08:53:43.082Z,41.33
2022-12-24T08:56:11.176Z,38.28
2022-12-24T08:58:37.627Z,27.30
2022-12-24T09:01:12.819Z,22.00
2022-12-24T09:03:39.753Z,22.20
2022-12-24T09:06:07.445Z,22.67
2022-12-24T09:08:34.294Z,20.00
2022-12-24T09:11:19.052Z,20.63
2022-12-24T09:13:45.548Z,19.17
2022-12-24T09:16:12.194Z,19.92
2022-12-24T09:18:39.794Z,17.13
2022-12-24T09:21:09.085Z,20.52
2022-12-24T09:23:39.504Z,15.45
2022-12-24T09:26:12.839Z,14.50
2022-12-24T09:28:39.509Z,21.73
2022-12-24T09:31:07.429Z,14.05
2022-12-24T09:33:36.489Z,16.20
2022-12-24T09:36:04.482Z,15.57
2022-12-24T09:38:31.271Z,15.52
2022-12-24T09:41:02.434Z,18.05
2022-12-24T09:43:33.966Z,18.75
2022-12-24T09:46:16.928Z,15.90
2022-12-24T09:48:54.817Z,12.18
2022-12-24T09:51:36.446Z,12.02
2022-12-24T09:54:15.395Z,16.35
2022-12-24T09:56:45.587Z,13.32
2022-12-24T09:59:20.392Z,15.20
2022-12-24T10:01:48.984Z,14.50
2022-12-24T10:04:17.981Z,13.68
2022-12-24T10:07:03.099Z,17.35
2022-12-24T10:09:47.778Z,14.48
2022-12-24T10:12:41.126Z,18.60
2022-12-24T10:15:34.079Z,27.63
2022-12-24T10:18:26.851Z,19.85
2022-12-24T10:21:09.787Z,16.83
2022-12-24T10:24:19.231Z,23.02
2022-12-24T10:26:52.763Z,23.05
2022-12-24T10:29:31.961Z,18.25
2022-12-24T10:32:16.461Z,18.55
2022-12-24T10:34:53.435Z,17.27
2022-12-24T10:37:24.694Z,14.60
2022-12-24T10:39:52.343Z,18.95
2022-12-24T10:42:20.237Z,15.60
2022-12-24T10:44:51.863Z,15.93
2022-12-24T10:47:21.897Z,23.85
2022-12-24T10:50:03.009Z,24.30
2022-12-24T10:52:35.401Z,20.00
2022-12-24T10:55:18.532Z,21.65
2022-12-24T10:58:12.491Z,19.05
2022-12-24T11:00:40.814Z,20.77
2022-12-24T11:03:13.055Z,23.83
2022-12-24T11:05:40.201Z,18.90
2022-12-24T11:08:18.181Z,19.15
2022-12-24T11:10:55.766Z,16.25
2022-12-24T11:13:45.161Z,14.70
2022-12-24T11:16:25.696Z,22.17
2022-12-24T11:18:55.148Z,16.25
2022-12-24T11:21:30.926Z,15.32
2022-12-24T11:24:14.109Z,20.85
2022-12-24T11:26:42.984Z,17.15
2022-12-24T11:29:21.025Z,17.40
2022-12-24T11:31:48.049Z,19.05
2022-12-24T11:34:32.785Z,28.92
2022-12-24T11:37:22.113Z,21.60
2022-12-24T11:40:01.087Z,20.63
2022-12-24T11:42:33.481Z,23.33
2022-12-24T11:45:03.141Z,19.42
2022-12-24T11:47:37.744Z,21.30
2022-12-24T11:50:31.724Z,16.73
2022-12-24T11:53:04.060Z,29.63
2022-12-24T11:55:40.732Z,20.35
2022-12-24T11:58:37.456Z,27.58
2022-12-24T12:01:39.871Z,21.45
2022-12-24T12:04:17.551Z,22.45
2022-12-24T12:06:48.841Z,26.02
2022-12-24T12:11:51.987Z,16.25
2022-12-24T12:14:27.890Z,15.07
2022-12-24T12:17:03.317Z,18.42
2022-12-24T12:19:53.691Z,18.48
2022-12-24T12:22:43.857Z,16.80
2022-12-24T12:25:22.732Z,18.02
2022-12-24T12:27:52.806Z,16.42
2022-12-24T12:30:22.406Z,18.05
2022-12-24T12:33:00.402Z,13.48
2022-12-24T12:35:35.260Z,17.60
2022-12-24T12:38:05.446Z,17.17
2022-12-24T12:40:58.318Z,18.27
2022-12-24T12:43:33.383Z,24.77
2022-12-24T12:46:36.770Z,21.90
2022-12-24T12:49:12.616Z,20.08
2022-12-24T12:51:53.291Z,14.85
2022-12-24T12:54:32.410Z,16.48
2022-12-24T12:57:05.812Z,23.30
2022-12-24T12:59:43.344Z,20.38
2022-12-24T13:02:25.123Z,16.75
2022-12-24T13:05:15.189Z,16.42
2022-12-24T13:08:04.584Z,16.23
2022-12-24T13:10:55.719Z,13.70
2022-12-24T13:14:04.050Z,19.75
2022-12-24T13:17:04.408Z,15.82
2022-12-24T13:20:14.942Z,17.95
2022-12-24T13:22:49.130Z,14.55
2022-12-24T13:25:22.541Z,14.35
2022-12-24T13:27:48.947Z,10.93
2022-12-24T13:30:36.069Z,16.38
2022-12-24T13:33:03.725Z,18.48
2022-12-24T13:35:37.615Z,14.75
2022-12-24T13:38:26.492Z,21.13
2022-12-24T13:40:53.023Z,14.93
2022-12-24T13:43:19.429Z,12.32
2022-12-24T13:45:51.171Z,14.98
2022-12-24T13:48:33.746Z,19.45
2022-12-24T13:51:20.331Z,14.20
2022-12-24T13:53:48.565Z,16.05
2022-12-24T13:56:16.591Z,21.17
2022-12-24T13:58:48.394Z,18.35
2022-12-24T14:01:18.476Z,21.08
2022-12-24T14:03:46.685Z,18.08
2022-12-24T14:06:20.990Z,19.20
2022-12-24T14:08:49.701Z,15.68
2022-12-24T14:11:27.631Z,23.25
2022-12-24T14:14:11.171Z,19.15
2022-12-24T14:16:45.572Z,14.88
2022-12-24T14:19:20.861Z,23.25
2022-12-24T14:21:56.369Z,26.40
2022-12-24T14:24:27.717Z,20.75
2022-12-24T14:26:58.781Z,21.52
2022-12-24T14:29:40.177Z,19.77
2022-12-24T14:32:13.493Z,22.45
2022-12-24T14:34:39.875Z,15.60
2022-12-24T14:37:06.382Z,15.60
2022-12-24T14:39:35.627Z,16.13
2022-12-24T14:42:26.524Z,11.88
2022-12-24T14:45:22.904Z,18.67
2022-12-24T14:48:03.897Z,15.38
2022-12-24T14:50:59.270Z,21.17
2022-12-24T14:54:04.489Z,26.40
2022-12-24T14:56:30.791Z,28.20
2022-12-24T14:58:58.962Z,21.45
2022-12-24T15:01:27.627Z,26.27
2022-12-24T15:04:04.089Z,24.48
2022-12-24T15:06:34.871Z,33.03
2022-12-24T15:09:01.469Z,28.67
2022-12-24T15:11:28.332Z,32.00
2022-12-24T15:14:00.431Z,40.45
2022-12-24T15:16:30.385Z,36.83
2022-12-24T15:19:02.112Z,28.90
2022-12-24T15:21:42.414Z,30.27
2022-12-24T15:24:36.931Z,28.30
2022-12-24T15:27:14.701Z,31.15
2022-12-24T15:29:44.784Z,40.75
2022-12-24T15:32:16.280Z,28.17
2022-12-24T15:34:45.125Z,45.83
2022-12-24T15:37:16.822Z,31.35
2022-12-24T15:39:44.513Z,35.92
2022-12-24T15:42:18.576Z,32.90
2022-12-24T15:44:57.477Z,34.97
2022-12-24T15:47:29.108Z,33.75
2022-12-24T15:49:56.101Z,24.77
2022-12-24T15:52:24.828Z,28.83
2022-12-24T15:54:57.377Z,28.67
2022-12-24T15:57:27.128Z,22.80
2022-12-24T15:59:56.053Z,28.45
2022-12-24T16:02:33.474Z,26.27
2022-12-24T16:05:27.113Z,26.63
2022-12-24T16:08:23.600Z,25.17
2022-12-24T16:11:05.949Z,19.92
2022-12-24T16:13:40.381Z,23.35
2022-12-24T16:16:10.178Z,21.25
2022-12-24T16:18:40.104Z,28.80
2022-12-24T16:21:07.608Z,25.05
2022-12-24T16:23:47.305Z,30.27
2022-12-24T16:26:14.016Z,34.08
2022-12-24T16:28:40.324Z,33.95
2022-12-24T16:31:06.793Z,31.23
2022-12-24T16:33:33.165Z,31.10
2022-12-24T16:35:59.571Z,34.20
2022-12-24T16:38:26.039Z,32.55
2022-12-24T16:40:52.607Z,31.55
2022-12-24T16:43:37.537Z,31.75
2022-12-24T16:46:06.970Z,27.65
2022-12-24T16:48:37.625Z,26.08
2022-12-24T16:51:04.054Z,22.60
2022-12-24T16:53:30.383Z,27.73
2022-12-24T16:55:56.737Z,31.52
2022-12-24T16:58:23.105Z,26.38
2022-12-24T17:00:49.547Z,19.30
2022-12-24T17:03:16.224Z,23.73
2022-12-24T17:05:44.489Z,24.80
2022-12-24T17:08:11.870Z,32.28
2022-12-24T17:10:38.607Z,28.13
2022-12-24T17:13:05.346Z,32.10
2022-12-24T17:15:32.399Z,36.15
2022-12-24T17:17:58.814Z,27.13
2022-12-24T17:20:25.304Z,31.67
2022-12-24T17:22:51.931Z,57.05
2022-12-24T17:25:18.323Z,62.63
2022-12-24T17:27:44.631Z,72.18
2022-12-24T17:30:11.388Z,60.78
2022-12-24T17:32:39.151Z,54.75
2022-12-24T17:35:05.974Z,57.38
2022-12-24T17:37:32.315Z,55.38
2022-12-24T17:39:58.826Z,40.50
2022-12-24T17:42:25.248Z,35.30
2022-12-24T17:44:51.589Z,33.97
2022-12-24T17:47:17.940Z,35.50
2022-12-24T17:49:44.261Z,36.25
2022-12-24T17:52:11.301Z,31.20
2022-12-24T17:54:37.618Z,24.33
2022-12-24T17:57:03.988Z,21.27
2022-12-24T17:59:30.322Z,20.88
2022-12-24T18:01:56.754Z,21.65
2022-12-24T18:04:23.175Z,25.33
2022-12-24T18:06:50.010Z,13.68
2022-12-24T18:09:16.791Z,17.52
2022-12-24T18:11:43.483Z,14.93
2022-12-24T18:14:13.209Z,17.65
2022-12-24T18:16:40.681Z,17.52
2022-12-24T18:19:10.126Z,12.18
2022-12-24T18:21:36.702Z,18.00
2022-12-24T18:24:03.404Z,16.98
2022-12-24T18:26:30.786Z,18.67
2022-12-24T18:29:00.070Z,15.70
2022-12-24T18:31:28.652Z,16.23
2022-12-24T18:33:55.766Z,13.40
2022-12-24T18:36:22.937Z,13.98
2022-12-24T18:38:49.506Z,11.80
2022-12-24T18:41:18.845Z,18.10
2022-12-24T18:43:45.354Z,13.32
2022-12-24T18:46:14.619Z,14.18
2022-12-24T18:48:41.662Z,16.02
2022-12-24T18:51:09.143Z,11.43
2022-12-24T18:53:36.623Z,12.88
2022-12-24T18:56:05.521Z,15.88
2022-12-24T18:58:31.896Z,14.00
2022-12-24T19:00:58.328Z,11.70
2022-12-24T19:03:24.792Z,16.10
2022-12-24T19:05:51.218Z,16.85
2022-12-24T19:08:46.916Z,12.88
2022-12-24T19:11:04.771Z,20.98
2022-12-24T19:13:31.656Z,11.25
2022-12-24T19:15:58.012Z,19.98
2022-12-24T19:18:24.582Z,14.50
2022-12-24T19:20:50.892Z,11.10
2022-12-24T19:23:17.280Z,17.90
2022-12-24T19:25:43.814Z,14.27
2022-12-24T19:28:10.159Z,12.65
2022-12-24T19:30:42.025Z,20.08
2022-12-24T19:33:09.347Z,12.23
2022-12-24T19:35:35.711Z,13.90
2022-12-24T19:38:02.037Z,15.05
2022-12-24T19:40:28.601Z,17.95
2022-12-24T19:42:54.977Z,10.45
2022-12-24T19:45:22.901Z,18.15
2022-12-24T19:47:51.259Z,17.40
2022-12-24T19:50:18.145Z,17.08
2022-12-24T19:52:45.099Z,16.52
2022-12-24T19:55:11.838Z,22.83
2022-12-24T19:57:39.553Z,14.73
2022-12-24T20:00:07.838Z,14.77
2022-12-24T20:02:38.675Z,17.17
2022-12-24T20:05:06.192Z,14.98
2022-12-24T20:07:32.629Z,14.93
2022-12-24T20:09:58.980Z,11.95
2022-12-24T20:12:25.378Z,14.25
2022-12-24T20:14:55.020Z,16.33
2022-12-24T20:17:21.402Z,15.18
2022-12-24T20:19:47.699Z,15.07
2022-12-24T20:22:14.014Z,12.32
2022-12-24T20:24:40.428Z,21.27
2022-12-24T20:27:06.826Z,35.20
2022-12-24T20:29:33.126Z,40.83
2022-12-24T20:32:00.205Z,22.38
2022-12-24T20:34:26.589Z,15.57
2022-12-24T20:36:53.091Z,15.73
2022-12-24T20:39:19.387Z,20.20
2022-12-24T20:41:45.777Z,19.70
2022-12-24T20:44:12.208Z,21.55
2022-12-24T20:46:38.589Z,15.98
2022-12-24T20:49:05.111Z,17.20
2022-12-24T20:51:31.497Z,20.77
2022-12-24T20:53:59.685Z,18.90
2022-12-24T20:56:28.630Z,24.15
2022-12-24T20:58:55.003Z,19.73
2022-12-24T21:01:24.894Z,17.65
2022-12-24T21:03:53.183Z,15.40
2022-12-24T21:06:19.691Z,12.80
2022-12-24T21:08:49.261Z,26.08
2022-12-24T21:11:34.201Z,13.95
2022-12-24T21:14:01.949Z,15.93
2022-12-24T21:16:29.961Z,21.42
2022-12-24T21:18:56.339Z,20.98
2022-12-24T21:21:22.787Z,18.58
2022-12-24T21:23:49.534Z,15.10
2022-12-24T21:26:15.931Z,14.27
2022-12-24T21:28:43.730Z,19.77
2022-12-24T21:31:11.594Z,14.68
2022-12-24T21:33:38.715Z,17.17
2022-12-24T21:36:06.105Z,21.15
2022-12-24T21:38:34.376Z,14.55
2022-12-24T21:41:15.879Z,22.05
2022-12-24T21:43:43.172Z,12.82
2022-12-24T21:46:13.970Z,20.33
2022-12-24T21:48:59.183Z,18.42
2022-12-24T21:51:27.220Z,18.85
2022-12-24T21:54:13.488Z,20.85
2022-12-24T21:56:58.728Z,17.70
2022-12-24T21:59:27.025Z,22.20
2022-12-24T22:01:54.078Z,12.05
2022-12-24T22:04:20.460Z,18.27
2022-12-24T22:07:05.484Z,18.48
2022-12-24T22:09:50.277Z,13.43
2022-12-24T22:12:16.693Z,20.48
2022-12-24T22:14:43.047Z,14.70
2022-12-24T22:17:09.452Z,12.07
2022-12-24T22:19:35.862Z,16.00
2022-12-24T22:22:02.193Z,16.17
2022-12-24T22:24:28.507Z,18.02
2022-12-24T22:26:54.846Z,26.17
2022-12-24T22:29:21.153Z,17.17
2022-12-24T22:31:47.539Z,24.30
2022-12-24T22:34:14.470Z,26.10
2022-12-24T22:36:40.931Z,18.67
2022-12-24T22:39:08.585Z,22.90
2022-12-24T22:41:35.003Z,24.10
2022-12-24T22:44:01.338Z,23.42
2022-12-24T22:46:27.703Z,21.63
2022-12-24T22:48:54.130Z,21.55
2022-12-24T22:51:24.228Z,31.63
2022-12-24T22:53:50.589Z,57.75
2022-12-24T22:56:22.363Z,36.25
2022-12-24T22:58:55.956Z,47.95
2022-12-24T23:01:44.811Z,39.08
2022-12-24T23:04:12.450Z,28.95
2022-12-24T23:06:39.667Z,53.75
2022-12-24T23:09:08.207Z,46.00
2022-12-24T23:11:35.417Z,55.72
2022-12-24T23:14:20.642Z,48.22
2022-12-24T23:16:47.125Z,62.63
2022-12-24T23:19:13.469Z,78.32
2022-12-24T23:21:39.846Z,57.78
2022-12-24T23:24:06.511Z,55.22
2022-12-24T23:26:33.039Z,45.90
2022-12-24T23:28:59.456Z,37.15
2022-12-24T23:31:26.155Z,38.13
2022-12-24T23:33:52.840Z,36.88
2022-12-24T23:36:19.638Z,52.60
2022-12-24T23:38:45.987Z,50.78
2022-12-24T23:41:12.588Z,82.70
2022-12-24T23:43:38.951Z,116.78
2022-12-24T23:46:05.841Z,73.45
2022-12-24T23:48:32.238Z,69.18
2022-12-24T23:51:11.699Z,74.57
2022-12-24T23:53:38.059Z,64.10
2022-12-24T23:56:05.303Z,46.08
2022-12-24T23:58:31.679Z,35.58
